Svellingen — LM9001 — position and weather

sailwx.info

Track history (hours):
 
Tides and Currents Weather Stations Pressure Air Temp Water Temp Dewpoint Dewpoint Depression Visibility Wind Speed Wind Dir Waves Ship Positions

Svellingen

Last reported at 2017-Nov-16 08:36 UTC. Time now 2017-Nov-18 12:31 UTC.
Position N 70°09' E 028°53'.

Length 9 m.

Type: Fishing. MMSI: 257118240.

Date/timePositionNaut miles runAvg speedWind from/ knotsBaromVisibWave heightAir tempDewpointWater temp
2017-Nov-16 08:36N 70°09' E 028°53'0 0.1
2017-Nov-16 07:52N 70°09' E 028°53'1 2.3
2017-Nov-16 07:27N 70°09' E 028°50'1 0.3
2017-Nov-16 03:53N 70°09' E 028°53'0 0.0
2017-Nov-16 03:17N 70°09' E 028°53'0 0.0
2017-Nov-15 23:14N 70°09' E 028°53'0 0.0
2017-Nov-15 14:38N 70°09' E 028°53'0 0.0
2017-Nov-15 12:17N 70°09' E 028°53'0 0.0
2017-Nov-15 10:59N 70°09' E 028°53'6 3.6
2017-Nov-15 09:28N 70°04' E 029°02'0 0.2
2017-Nov-15 07:23N 70°04' E 029°02'3 6.8
2017-Nov-15 06:59N 70°07' E 028°57'2 1.0
2017-Nov-15 04:25N 70°09' E 028°53'0 0.0
2017-Nov-15 03:55N 70°09' E 028°53'0 0.0
2017-Nov-15 02:55N 70°09' E 028°53'0 0.0
2017-Nov-15 02:13N 70°09' E 028°53'0 0.0
2017-Nov-15 01:37N 70°09' E 028°53'0 0.0
2017-Nov-15 01:22N 70°09' E 028°53'0 0.0
2017-Nov-15 00:58N 70°09' E 028°53'0 0.0
2017-Nov-15 00:28N 70°09' E 028°53'0 0.0
2017-Nov-14 17:10N 70°09' E 028°53'0 0.0
2017-Nov-14 16:16N 70°09' E 028°53'0 0.0
2017-Nov-14 15:19N 70°09' E 028°53'0 0.0
2017-Nov-14 14:58N 70°09' E 028°53'0 0.0
2017-Nov-14 14:28N 70°09' E 028°53'0 0.0
2017-Nov-14 13:55N 70°09' E 028°53'0 0.0
2017-Nov-14 12:34N 70°09' E 028°53'0 0.0
2017-Nov-14 12:25N 70°09' E 028°53'0 0.0
2017-Nov-14 11:25N 70°09' E 028°53'0 0.0
2017-Nov-14 04:49N 70°09' E 028°53'0 0.0
2017-Nov-14 02:28N 70°09' E 028°53'0 0.0
2017-Nov-14 01:58N 70°09' E 028°53'0 0.0
2017-Nov-14 01:28N 70°09' E 028°53'0 0.0
2017-Nov-14 00:37N 70°09' E 028°53'0 0.0
2017-Nov-14 00:19N 70°09' E 028°53'0 0.0
2017-Nov-13 23:28N 70°09' E 028°53'0 0.0
2017-Nov-13 22:31N 70°09' E 028°53'0 0.0
2017-Nov-13 22:16N 70°09' E 028°53'0 0.0
2017-Nov-13 21:37N 70°09' E 028°53'0 0.0
2017-Nov-13 01:47N 70°09' E 028°53'0 0.0
2017-Nov-13 01:05N 70°09' E 028°53'0 0.0
2017-Nov-12 20:14N 70°09' E 028°53'0 0.0
2017-Nov-12 18:23N 70°09' E 028°53'0 0.0
2017-Nov-12 12:26N 70°09' E 028°53'0 0.0
2017-Nov-12 10:39N 70°09' E 028°53'1 4.7
2017-Nov-12 10:28N 70°08' E 028°50'2 3.8
2017-Nov-12 09:48N 70°07' E 028°56'0 0.1
2017-Nov-12 06:57N 70°07' E 028°56'2 1.1
2017-Nov-12 04:51N 70°09' E 028°53'0 0.0
2017-Nov-12 03:24N 70°09' E 028°53'0 0.0
2017-Nov-11 21:24N 70°09' E 028°53'0 0.0
2017-Nov-11 11:12N 70°09' E 028°53'0 0.0
2017-Nov-11 08:42N 70°09' E 028°53'0 0.0
2017-Nov-11 08:09N 70°09' E 028°53'0 0.0
2017-Nov-11 00:24N 70°09' E 028°53'0 0.0
2017-Nov-10 19:57N 70°09' E 028°53'0 0.0
2017-Nov-10 18:24N 70°09' E 028°53'0 0.0
2017-Nov-10 11:48N 70°09' E 028°53'0 0.0
2017-Nov-10 11:06N 70°09' E 028°53'0 0.0
2017-Nov-10 10:54N 70°09' E 028°53'0 0.0
2017-Nov-10 10:30N 70°09' E 028°53'0 0.0
2017-Nov-10 07:00N 70°09' E 028°53'0 0.0
2017-Nov-09 16:24N 70°09' E 028°53'0 0.0
2017-Nov-08 18:42N 70°09' E 028°53'0 0.0
2017-Nov-08 10:35N 70°09' E 028°53'1 5.2
2017-Nov-08 10:26N 70°08' E 028°51'2 3.4
2017-Nov-08 09:46N 70°07' E 028°56'2 7.1
2017-Nov-08 09:28N 70°05' E 028°60'2 0.7
2017-Nov-08 07:22N 70°04' E 029°03'6 0.2
2017-Nov-07 05:20N 70°09' E 028°53'  
Track history (hours):
 
Tides and Currents Weather Stations Pressure Air Temp Water Temp Dewpoint Dewpoint Depression Visibility Wind Speed Wind Dir Waves Ship Positions

Svellingen

Last reported at 2017-Nov-16 08:36 UTC. Time now 2017-Nov-18 12:31 UTC.
Position N 70°09' E 028°53'.

Length 9 m.

Type: Fishing. MMSI: 257118240.

Date/timePositionNaut miles runAvg speedWind from/ knotsBaromVisibWave heightAir tempDewpointWater temp
2017-Nov-16 08:36N 70°09' E 028°53'0 0.1
2017-Nov-16 07:52N 70°09' E 028°53'1 2.3
2017-Nov-16 07:27N 70°09' E 028°50'1 0.3
2017-Nov-16 03:53N 70°09' E 028°53'0 0.0
2017-Nov-16 03:17N 70°09' E 028°53'0 0.0
2017-Nov-15 23:14N 70°09' E 028°53'0 0.0
2017-Nov-15 14:38N 70°09' E 028°53'0 0.0
2017-Nov-15 12:17N 70°09' E 028°53'0 0.0
2017-Nov-15 10:59N 70°09' E 028°53'6 3.6
2017-Nov-15 09:28N 70°04' E 029°02'0 0.2
2017-Nov-15 07:23N 70°04' E 029°02'3 6.8
2017-Nov-15 06:59N 70°07' E 028°57'2 1.0
2017-Nov-15 04:25N 70°09' E 028°53'0 0.0
2017-Nov-15 03:55N 70°09' E 028°53'0 0.0
2017-Nov-15 02:55N 70°09' E 028°53'0 0.0
2017-Nov-15 02:13N 70°09' E 028°53'0 0.0
2017-Nov-15 01:37N 70°09' E 028°53'0 0.0
2017-Nov-15 01:22N 70°09' E 028°53'0 0.0
2017-Nov-15 00:58N 70°09' E 028°53'0 0.0
2017-Nov-15 00:28N 70°09' E 028°53'0 0.0
2017-Nov-14 17:10N 70°09' E 028°53'0 0.0
2017-Nov-14 16:16N 70°09' E 028°53'0 0.0
2017-Nov-14 15:19N 70°09' E 028°53'0 0.0
2017-Nov-14 14:58N 70°09' E 028°53'0 0.0
2017-Nov-14 14:28N 70°09' E 028°53'0 0.0
2017-Nov-14 13:55N 70°09' E 028°53'0 0.0
2017-Nov-14 12:34N 70°09' E 028°53'0 0.0
2017-Nov-14 12:25N 70°09' E 028°53'0 0.0
2017-Nov-14 11:25N 70°09' E 028°53'0 0.0
2017-Nov-14 04:49N 70°09' E 028°53'0 0.0
2017-Nov-14 02:28N 70°09' E 028°53'0 0.0
2017-Nov-14 01:58N 70°09' E 028°53'0 0.0
2017-Nov-14 01:28N 70°09' E 028°53'0 0.0
2017-Nov-14 00:37N 70°09' E 028°53'0 0.0
2017-Nov-14 00:19N 70°09' E 028°53'0 0.0
2017-Nov-13 23:28N 70°09' E 028°53'0 0.0
2017-Nov-13 22:31N 70°09' E 028°53'0 0.0
2017-Nov-13 22:16N 70°09' E 028°53'0 0.0
2017-Nov-13 21:37N 70°09' E 028°53'0 0.0
2017-Nov-13 01:47N 70°09' E 028°53'0 0.0
2017-Nov-13 01:05N 70°09' E 028°53'0 0.0
2017-Nov-12 20:14N 70°09' E 028°53'0 0.0
2017-Nov-12 18:23N 70°09' E 028°53'0 0.0
2017-Nov-12 12:26N 70°09' E 028°53'0 0.0
2017-Nov-12 10:39N 70°09' E 028°53'1 4.7
2017-Nov-12 10:28N 70°08' E 028°50'2 3.8
2017-Nov-12 09:48N 70°07' E 028°56'0 0.1
2017-Nov-12 06:57N 70°07' E 028°56'2 1.1
2017-Nov-12 04:51N 70°09' E 028°53'0 0.0
2017-Nov-12 03:24N 70°09' E 028°53'0 0.0
2017-Nov-11 21:24N 70°09' E 028°53'0 0.0
2017-Nov-11 11:12N 70°09' E 028°53'0 0.0
2017-Nov-11 08:42N 70°09' E 028°53'0 0.0
2017-Nov-11 08:09N 70°09' E 028°53'0 0.0
2017-Nov-11 00:24N 70°09' E 028°53'0 0.0
2017-Nov-10 19:57N 70°09' E 028°53'0 0.0
2017-Nov-10 18:24N 70°09' E 028°53'0 0.0
2017-Nov-10 11:48N 70°09' E 028°53'0 0.0
2017-Nov-10 11:06N 70°09' E 028°53'0 0.0
2017-Nov-10 10:54N 70°09' E 028°53'0 0.0
2017-Nov-10 10:30N 70°09' E 028°53'0 0.0
2017-Nov-10 07:00N 70°09' E 028°53'0 0.0
2017-Nov-09 16:24N 70°09' E 028°53'0 0.0
2017-Nov-08 18:42N 70°09' E 028°53'0 0.0
2017-Nov-08 10:35N 70°09' E 028°53'1 5.2
2017-Nov-08 10:26N 70°08' E 028°51'2 3.4
2017-Nov-08 09:46N 70°07' E 028°56'2 7.1
2017-Nov-08 09:28N 70°05' E 028°60'2 0.7
2017-Nov-08 07:22N 70°04' E 029°03'6 0.2
2017-Nov-07 05:20N 70°09' E 028°53'  

Dump ship's entire track history